Time,TemperatureF,DewpointF,PressureIn,WindDirection,WindDirectionDegrees,WindSpeedMPH,WindSpeedGustMPH,Humidity,HourlyPrecipIn,Conditions,Clouds,dailyrainin,SoftwareType,DateUTC
2013-05-23 00:04:00,45.2,41.9,29.57,North,0,0.0,0.0,88,0.00,,,0.00,WUHU216HW,2013-05-23 07:04:00,
2013-05-23 00:09:00,45.2,41.9,29.57,North,0,0.0,0.0,88,0.00,,,0.00,WUHU216HW,2013-05-23 07:09:00,
2013-05-23 00:29:00,44.1,40.8,29.57,North,0,0.0,0.0,88,0.00,,,0.00,WUHU216HW,2013-05-23 07:29:00,
2013-05-23 00:34:00,44.1,40.8,29.57,North,0,0.0,0.0,88,0.00,,,0.00,WUHU216HW,2013-05-23 07:34:00,
2013-05-23 00:59:00,44.1,40.8,29.57,North,0,0.0,0.0,88,0.00,,,0.00,WUHU216HW,2013-05-23 07:59:00,
2013-05-23 01:04:00,44.1,40.8,29.57,North,0,0.0,0.0,88,0.00,,,0.00,WUHU216HW,2013-05-23 08:04:00,
2013-05-23 01:29:00,44.5,41.5,29.58,North,0,0.0,0.0,89,0.00,,,0.00,WUHU216HW,2013-05-23 08:29:00,
2013-05-23 01:34:00,44.5,41.5,29.58,North,0,0.0,0.0,89,0.00,,,0.00,WUHU216HW,2013-05-23 08:34:00,
2013-05-23 01:59:00,44.6,41.9,29.58,North,0,0.0,0.0,90,0.00,,,0.00,WUHU216HW,2013-05-23 08:59:00,
2013-05-23 02:04:00,44.6,41.9,29.58,North,0,0.0,0.0,90,0.00,,,0.00,WUHU216HW,2013-05-23 09:04:00,
2013-05-23 02:29:00,44.8,42.1,29.59,North,0,0.0,0.0,90,0.00,,,0.00,WUHU216HW,2013-05-23 09:29:00,
2013-05-23 02:34:00,44.8,42.1,29.59,North,0,0.0,0.0,90,0.00,,,0.00,WUHU216HW,2013-05-23 09:34:00,
2013-05-23 02:59:00,45.0,42.3,29.59,North,0,0.0,0.0,90,0.01,,,0.00,WUHU216HW,2013-05-23 09:59:00,
2013-05-23 03:04:00,45.0,42.3,29.59,North,0,0.0,0.0,90,0.01,,,0.00,WUHU216HW,2013-05-23 10:04:00,
2013-05-23 03:29:00,45.2,42.8,29.59,North,0,0.0,0.0,91,0.02,,,0.01,WUHU216HW,2013-05-23 10:29:00,
2013-05-23 03:34:00,45.2,42.8,29.59,North,0,0.0,0.0,91,0.02,,,0.01,WUHU216HW,2013-05-23 10:34:00,
2013-05-23 03:59:00,45.2,42.8,29.60,North,0,0.0,0.0,91,0.00,,,0.03,WUHU216HW,2013-05-23 10:59:00,
2013-05-23 04:04:00,45.2,42.8,29.60,North,0,0.0,0.0,91,0.00,,,0.03,WUHU216HW,2013-05-23 11:04:00,
2013-05-23 04:29:00,45.0,42.6,29.60,North,0,0.0,0.0,91,0.01,,,0.03,WUHU216HW,2013-05-23 11:29:00,
2013-05-23 04:34:00,45.0,42.6,29.60,North,0,0.0,0.0,91,0.01,,,0.03,WUHU216HW,2013-05-23 11:34:00,
2013-05-23 04:59:00,45.0,42.6,29.60,North,0,0.0,0.0,91,0.02,,,0.03,WUHU216HW,2013-05-23 11:59:00,
2013-05-23 05:04:00,45.0,42.6,29.60,North,0,0.0,0.0,91,0.02,,,0.03,WUHU216HW,2013-05-23 12:04:00,
2013-05-23 05:29:00,45.0,42.6,29.60,North,0,0.0,0.0,91,0.03,,,0.05,WUHU216HW,2013-05-23 12:29:00,
2013-05-23 05:34:00,45.0,42.6,29.60,North,0,0.0,0.0,91,0.03,,,0.05,WUHU216HW,2013-05-23 12:34:00,
2013-05-23 05:59:00,45.0,42.6,29.60,North,0,0.0,0.0,91,0.03,,,0.06,WUHU216HW,2013-05-23 12:59:00,
2013-05-23 06:04:00,45.0,42.6,29.60,North,0,0.0,0.0,91,0.02,,,0.08,WUHU216HW,2013-05-23 13:04:00,
2013-05-23 06:09:00,45.0,42.6,29.60,North,0,0.0,0.0,91,0.02,,,0.08,WUHU216HW,2013-05-23 13:09:00,
2013-05-23 06:29:00,45.0,42.6,29.61,North,0,0.0,0.0,91,0.02,,,0.08,WUHU216HW,2013-05-23 13:29:00,
2013-05-23 06:34:00,45.0,42.6,29.61,North,0,0.0,0.0,91,0.02,,,0.08,WUHU216HW,2013-05-23 13:34:00,
2013-05-23 06:59:00,46.1,43.9,29.62,North,0,0.0,0.0,92,0.00,,,0.08,WUHU216HW,2013-05-23 13:59:00,
2013-05-23 07:04:00,46.1,43.9,29.62,North,0,0.0,0.0,92,0.00,,,0.08,WUHU216HW,2013-05-23 14:04:00,
2013-05-23 07:09:00,46.1,43.9,29.62,North,0,0.0,0.0,92,0.00,,,0.08,WUHU216HW,2013-05-23 14:09:00,
2013-05-23 07:29:00,47.0,44.6,29.62,North,0,0.0,0.0,91,0.00,,,0.08,WUHU216HW,2013-05-23 14:29:00,
2013-05-23 07:34:00,47.0,44.6,29.62,North,0,0.0,0.0,91,0.00,,,0.08,WUHU216HW,2013-05-23 14:34:00,
2013-05-23 07:59:00,48.1,45.6,29.63,North,0,0.0,0.0,91,0.00,,,0.08,WUHU216HW,2013-05-23 14:59:00,
2013-05-23 08:04:00,48.1,45.6,29.63,North,0,0.0,0.0,91,0.00,,,0.08,WUHU216HW,2013-05-23 15:04:00,
2013-05-23 08:09:00,48.1,45.6,29.63,North,0,0.0,0.0,91,0.00,,,0.08,WUHU216HW,2013-05-23 15:09:00,
2013-05-23 08:29:00,49.1,46.4,29.63,North,0,0.0,0.0,90,0.00,,,0.08,WUHU216HW,2013-05-23 15:29:00,
2013-05-23 08:34:00,49.1,46.4,29.63,North,0,0.0,0.0,90,0.00,,,0.08,WUHU216HW,2013-05-23 15:34:00,
2013-05-23 08:59:00,50.2,46.7,29.63,North,0,0.0,0.0,88,0.01,,,0.08,WUHU216HW,2013-05-23 15:59:00,
2013-05-23 09:04:00,50.2,46.7,29.63,North,0,0.0,0.0,88,0.01,,,0.10,WUHU216HW,2013-05-23 16:04:00,
2013-05-23 09:09:00,50.2,46.7,29.63,North,0,0.0,0.0,88,0.01,,,0.10,WUHU216HW,2013-05-23 16:09:00,
2013-05-23 09:29:00,52.2,48.7,29.63,North,0,0.0,0.0,88,0.01,,,0.10,WUHU216HW,2013-05-23 16:29:00,
2013-05-23 09:34:00,52.2,48.7,29.63,North,0,0.0,0.0,88,0.01,,,0.10,WUHU216HW,2013-05-23 16:34:00,
2013-05-23 09:59:00,53.8,49.1,29.63,North,0,0.0,0.0,84,0.00,,,0.10,WUHU216HW,2013-05-23 16:59:00,
2013-05-23 10:04:00,53.8,49.1,29.63,North,0,0.0,0.0,84,0.00,,,0.10,WUHU216HW,2013-05-23 17:04:00,
2013-05-23 10:09:00,53.8,49.1,29.63,North,0,0.0,0.0,84,0.00,,,0.10,WUHU216HW,2013-05-23 17:09:00,
2013-05-23 10:29:00,55.3,49.5,29.62,North,0,0.0,0.0,81,0.00,,,0.10,WUHU216HW,2013-05-23 17:29:00,
2013-05-23 10:34:00,55.3,49.5,29.62,North,0,0.0,0.0,81,0.00,,,0.10,WUHU216HW,2013-05-23 17:34:00,
2013-05-23 10:59:00,56.5,49.3,29.62,North,0,0.0,0.0,77,0.00,,,0.10,WUHU216HW,2013-05-23 17:59:00,
2013-05-23 11:04:00,56.5,49.3,29.62,North,0,0.0,0.0,77,0.00,,,0.10,WUHU216HW,2013-05-23 18:04:00,
2013-05-23 11:29:00,57.4,48.4,29.62,North,0,0.0,0.0,72,0.00,,,0.10,WUHU216HW,2013-05-23 18:29:00,
2013-05-23 11:34:00,57.4,48.4,29.62,North,0,0.0,0.0,72,0.00,,,0.10,WUHU216HW,2013-05-23 18:34:00,
2013-05-23 11:59:00,59.0,49.7,29.62,North,0,0.0,0.0,71,0.00,,,0.10,WUHU216HW,2013-05-23 18:59:00,
2013-05-23 12:04:00,59.0,49.7,29.62,North,0,0.0,0.0,71,0.00,,,0.10,WUHU216HW,2013-05-23 19:04:00,
2013-05-23 12:29:00,56.9,47.9,29.62,North,0,0.0,0.0,72,0.00,,,0.10,WUHU216HW,2013-05-23 19:29:00,
2013-05-23 12:34:00,56.9,47.9,29.62,North,0,0.0,0.0,72,0.00,,,0.10,WUHU216HW,2013-05-23 19:34:00,
2013-05-23 12:59:00,53.8,46.8,29.63,North,0,0.0,0.0,77,0.00,,,0.10,WUHU216HW,2013-05-23 19:59:00,
2013-05-23 13:04:00,53.8,46.8,29.63,North,0,0.0,0.0,77,0.00,,,0.10,WUHU216HW,2013-05-23 20:04:00,
2013-05-23 13:29:00,53.3,47.3,29.63,North,0,0.0,0.0,80,0.01,,,0.10,WUHU216HW,2013-05-23 20:29:00,
2013-05-23 13:34:00,53.3,47.3,29.63,North,0,0.0,0.0,80,0.01,,,0.10,WUHU216HW,2013-05-23 20:34:00,
2013-05-23 13:59:00,53.6,47.7,29.63,North,0,0.0,0.0,80,0.01,,,0.10,WUHU216HW,2013-05-23 20:59:00,
2013-05-23 14:04:00,53.6,47.7,29.63,North,0,0.0,0.0,80,0.01,,,0.10,WUHU216HW,2013-05-23 21:04:00,
2013-05-23 14:09:00,53.6,47.7,29.63,North,0,0.0,0.0,80,0.01,,,0.10,WUHU216HW,2013-05-23 21:09:00,
2013-05-23 14:29:00,52.7,46.8,29.65,North,0,0.0,0.0,80,0.01,,,0.10,WUHU216HW,2013-05-23 21:29:00,
2013-05-23 14:34:00,52.7,46.8,29.65,North,0,0.0,0.0,80,0.01,,,0.10,WUHU216HW,2013-05-23 21:34:00,
2013-05-23 14:59:00,52.4,47.1,29.66,North,0,0.0,0.0,82,0.02,,,0.12,WUHU216HW,2013-05-23 21:59:00,
2013-05-23 15:04:00,52.4,47.1,29.66,North,0,0.0,0.0,82,0.02,,,0.12,WUHU216HW,2013-05-23 22:04:00,
2013-05-23 15:29:00,51.5,46.8,29.66,North,0,0.0,0.0,84,0.03,,,0.12,WUHU216HW,2013-05-23 22:29:00,
2013-05-23 15:34:00,51.5,46.8,29.66,North,0,0.0,0.0,84,0.03,,,0.12,WUHU216HW,2013-05-23 22:34:00,
2013-05-23 15:59:00,51.8,47.2,29.66,North,0,0.0,0.0,84,0.03,,,0.15,WUHU216HW,2013-05-23 22:59:00,
2013-05-23 16:04:00,51.8,47.2,29.66,North,0,0.0,0.0,84,0.03,,,0.15,WUHU216HW,2013-05-23 23:04:00,
2013-05-23 16:29:00,53.3,48.2,29.65,North,0,0.0,0.0,83,0.02,,,0.16,WUHU216HW,2013-05-23 23:29:00,
2013-05-23 16:34:00,53.3,48.2,29.65,North,0,0.0,0.0,83,0.02,,,0.16,WUHU216HW,2013-05-23 23:34:00,
2013-05-23 16:59:00,53.8,48.5,29.64,North,0,0.0,0.0,82,0.01,,,0.17,WUHU216HW,2013-05-23 23:59:00,
2013-05-23 17:04:00,53.8,48.5,29.64,North,0,0.0,0.0,82,0.01,,,0.17,WUHU216HW,2013-05-24 00:04:00,
2013-05-23 17:09:00,53.8,48.5,29.64,North,0,0.0,0.0,82,0.01,,,0.17,WUHU216HW,2013-05-24 00:09:00,
2013-05-23 17:29:00,54.0,49.0,29.64,North,0,0.0,0.0,83,0.00,,,0.17,WUHU216HW,2013-05-24 00:29:00,
2013-05-23 17:34:00,54.0,49.0,29.64,North,0,0.0,0.0,83,0.00,,,0.17,WUHU216HW,2013-05-24 00:34:00,
2013-05-23 17:59:00,54.4,49.3,29.63,North,0,0.0,0.0,83,0.00,,,0.17,WUHU216HW,2013-05-24 00:59:00,
2013-05-23 18:04:00,54.4,49.3,29.63,North,0,0.0,0.0,83,0.00,,,0.17,WUHU216HW,2013-05-24 01:04:00,
2013-05-23 18:29:00,54.2,48.5,29.62,North,0,0.0,0.0,81,0.00,,,0.17,WUHU216HW,2013-05-24 01:29:00,
2013-05-23 18:34:00,54.2,48.5,29.62,North,0,0.0,0.0,81,0.00,,,0.17,WUHU216HW,2013-05-24 01:34:00,
2013-05-23 18:59:00,54.0,48.6,29.62,North,0,0.0,0.0,82,0.00,,,0.17,WUHU216HW,2013-05-24 01:59:00,
2013-05-23 19:04:00,54.0,48.6,29.62,North,0,0.0,0.0,82,0.00,,,0.17,WUHU216HW,2013-05-24 02:04:00,
2013-05-23 19:29:00,53.8,48.8,29.62,North,0,0.0,0.0,83,0.00,,,0.17,WUHU216HW,2013-05-24 02:29:00,
2013-05-23 19:34:00,53.8,48.8,29.62,North,0,0.0,0.0,83,0.00,,,0.17,WUHU216HW,2013-05-24 02:34:00,
2013-05-23 19:59:00,53.3,48.6,29.61,North,0,0.0,0.0,84,0.00,,,0.17,WUHU216HW,2013-05-24 02:59:00,
2013-05-23 20:04:00,53.3,48.6,29.61,North,0,0.0,0.0,84,0.00,,,0.17,WUHU216HW,2013-05-24 03:04:00,
2013-05-23 20:09:00,53.3,48.6,29.61,North,0,0.0,0.0,84,0.00,,,0.17,WUHU216HW,2013-05-24 03:09:00,
2013-05-23 20:29:00,52.6,47.9,29.61,North,0,0.0,0.0,84,0.00,,,0.17,WUHU216HW,2013-05-24 03:29:00,
2013-05-23 20:34:00,52.6,47.9,29.61,North,0,0.0,0.0,84,0.00,,,0.17,WUHU216HW,2013-05-24 03:34:00,
2013-05-23 20:59:00,51.7,47.3,29.61,North,0,0.0,0.0,85,0.00,,,0.17,WUHU216HW,2013-05-24 03:59:00,
2013-05-23 21:01:00,51.7,47.3,29.61,North,0,0.0,0.0,85,0.00,,,0.17,WUHU216HW,2013-05-24 04:01:00,
2013-05-23 21:06:00,51.7,47.3,29.61,North,0,0.0,0.0,85,0.00,,,0.17,WUHU216HW,2013-05-24 04:06:00,
2013-05-23 21:29:00,51.1,47.0,29.61,North,0,0.0,0.0,86,0.00,,,0.17,WUHU216HW,2013-05-24 04:29:00,
2013-05-23 21:34:00,51.1,47.0,29.61,North,0,0.0,0.0,86,0.00,,,0.17,WUHU216HW,2013-05-24 04:34:00,
2013-05-23 21:59:00,50.6,46.8,29.62,North,0,0.0,0.0,87,0.00,,,0.17,WUHU216HW,2013-05-24 04:59:00,
2013-05-23 22:04:00,50.6,46.8,29.62,North,0,0.0,0.0,87,0.00,,,0.17,WUHU216HW,2013-05-24 05:04:00,
2013-05-23 22:09:00,50.6,46.8,29.62,North,0,0.0,0.0,87,0.00,,,0.17,WUHU216HW,2013-05-24 05:09:00,
2013-05-23 22:29:00,50.0,45.9,29.63,North,0,0.0,0.0,86,0.00,,,0.17,WUHU216HW,2013-05-24 05:29:00,
2013-05-23 22:34:00,50.0,45.9,29.63,North,0,0.0,0.0,86,0.00,,,0.17,WUHU216HW,2013-05-24 05:34:00,
2013-05-23 22:59:00,49.5,45.7,29.62,North,0,0.0,0.0,87,0.00,,,0.17,WUHU216HW,2013-05-24 05:59:00,
2013-05-23 23:04:00,49.5,45.7,29.62,North,0,0.0,0.0,87,0.00,,,0.17,WUHU216HW,2013-05-24 06:04:00,
2013-05-23 23:09:00,49.5,45.7,29.62,North,0,0.0,0.0,87,0.00,,,0.17,WUHU216HW,2013-05-24 06:09:00,
2013-05-23 23:29:00,49.1,45.7,29.62,North,0,0.0,0.0,88,0.00,,,0.17,WUHU216HW,2013-05-24 06:29:00,
2013-05-23 23:34:00,49.1,45.7,29.62,North,0,0.0,0.0,88,0.00,,,0.17,WUHU216HW,2013-05-24 06:34:00,
2013-05-23 23:59:00,48.6,45.2,29.62,North,0,0.0,0.0,88,0.00,,,0.00,WUHU216HW,2013-05-24 06:59:00,